createdAt,value
2022-09-21T00:01:25.170Z,1.00
2022-09-21T00:03:54.772Z,1.27
2022-09-21T00:06:24.084Z,1.13
2022-09-21T00:08:51.928Z,1.45
2022-09-21T00:11:26.351Z,1.00
2022-09-21T00:13:55.794Z,1.23
2022-09-21T00:16:24.054Z,1.10
2022-09-21T00:18:52.130Z,1.00
2022-09-21T00:21:19.801Z,1.10
2022-09-21T00:23:47.276Z,1.05
2022-09-21T00:26:21.651Z,0.80
2022-09-21T00:28:55.010Z,1.05
2022-09-21T00:31:23.158Z,0.90
2022-09-21T00:33:51.261Z,0.88
2022-09-21T00:36:21.345Z,0.98
2022-09-21T00:38:54.835Z,1.00
2022-09-21T00:41:22.905Z,1.10
2022-09-21T00:44:16.509Z,0.93
2022-09-21T00:46:45.979Z,1.20
2022-09-21T00:49:14.863Z,1.20
2022-09-21T00:51:42.837Z,0.90
2022-09-21T00:54:25.382Z,1.10
2022-09-21T00:56:54.102Z,1.13
2022-09-21T00:59:24.770Z,1.00
2022-09-21T01:01:54.857Z,1.00
2022-09-21T01:04:23.051Z,1.00
2022-09-21T01:06:50.974Z,1.40
2022-09-21T01:09:19.233Z,0.80
2022-09-21T01:12:08.647Z,0.90
2022-09-21T01:14:48.139Z,1.20
2022-09-21T01:17:22.790Z,1.13
2022-09-21T01:19:59.407Z,0.98
2022-09-21T01:22:45.574Z,0.98
2022-09-21T01:25:25.326Z,1.20
2022-09-21T01:28:12.781Z,1.17
2022-09-21T01:30:45.683Z,1.00
2022-09-21T01:33:26.513Z,1.05
2022-09-21T01:35:58.689Z,1.17
2022-09-21T01:38:47.868Z,1.15
2022-09-21T01:41:18.985Z,1.08
2022-09-21T01:43:55.290Z,1.10
2022-09-21T01:46:29.007Z,1.00
2022-09-21T01:49:13.338Z,1.27
2022-09-21T01:51:48.571Z,0.88
2022-09-21T01:54:27.504Z,1.40
2022-09-21T01:57:11.424Z,1.10
2022-09-21T01:59:50.530Z,1.08
2022-09-21T02:02:34.577Z,1.17
2022-09-21T02:05:03.403Z,1.10
2022-09-21T02:07:35.823Z,1.17
2022-09-21T02:10:06.688Z,1.13
2022-09-21T02:12:34.656Z,1.08
2022-09-21T02:15:04.119Z,1.05
2022-09-21T02:17:50.786Z,1.35
2022-09-21T02:20:31.948Z,1.50
2022-09-21T02:23:23.531Z,1.10
2022-09-21T02:26:10.207Z,1.10
2022-09-21T02:28:48.256Z,1.30
2022-09-21T02:31:46.964Z,1.20
2022-09-21T02:34:20.818Z,1.27
2022-09-21T02:37:22.437Z,1.27
2022-09-21T02:40:01.183Z,1.25
2022-09-21T02:42:34.949Z,1.35
2022-09-21T02:45:02.337Z,1.25
2022-09-21T02:47:46.422Z,1.33
2022-09-21T02:50:21.481Z,1.38
2022-09-21T02:52:49.145Z,1.33
2022-09-21T02:55:18.034Z,1.20
2022-09-21T02:57:48.237Z,1.30
2022-09-21T03:00:16.907Z,1.17
2022-09-21T03:02:45.408Z,1.20
2022-09-21T03:05:14.561Z,1.17
2022-09-21T03:07:42.389Z,1.35
2022-09-21T03:10:10.594Z,1.10
2022-09-21T03:12:38.406Z,1.20
2022-09-21T03:15:06.335Z,1.40
2022-09-21T03:17:35.097Z,1.20
2022-09-21T03:20:02.763Z,1.20
2022-09-21T03:22:30.246Z,1.08
2022-09-21T03:24:57.820Z,1.63
2022-09-21T03:27:25.265Z,1.27
2022-09-21T03:30:37.606Z,1.40
2022-09-21T03:33:06.205Z,1.50
2022-09-21T03:35:34.259Z,1.30
2022-09-21T03:38:02.513Z,1.40
2022-09-21T03:40:30.112Z,1.63
2022-09-21T03:42:57.673Z,1.30
2022-09-21T03:45:27.621Z,1.20
2022-09-21T03:47:59.740Z,1.60
2022-09-21T03:50:28.840Z,1.40
2022-09-21T03:52:57.332Z,1.50
2022-09-21T03:55:25.597Z,1.50
2022-09-21T03:57:53.446Z,1.80
2022-09-21T04:00:20.934Z,2.22
2022-09-21T04:02:48.485Z,1.42
2022-09-21T04:05:17.013Z,1.20
2022-09-21T04:07:46.073Z,1.30
2022-09-21T04:10:16.777Z,1.70
2022-09-21T04:12:45.096Z,1.42
2022-09-21T04:15:19.782Z,1.45
2022-09-21T04:17:51.129Z,1.33
2022-09-21T04:20:18.602Z,1.38
2022-09-21T04:22:47.309Z,1.50
2022-09-21T04:25:15.835Z,1.70
2022-09-21T04:27:58.605Z,1.73
2022-09-21T04:30:26.033Z,1.52
2022-09-21T04:32:53.753Z,1.40
2022-09-21T04:35:21.353Z,2.08
2022-09-21T04:37:48.715Z,1.65
2022-09-21T04:40:16.225Z,1.25
2022-09-21T04:42:43.826Z,1.83
2022-09-21T04:45:11.507Z,1.92
2022-09-21T04:47:38.931Z,1.90
2022-09-21T04:50:07.023Z,1.92
2022-09-21T04:52:34.580Z,2.45
2022-09-21T04:55:01.959Z,1.95
2022-09-21T04:57:29.686Z,2.03
2022-09-21T04:59:56.992Z,2.58
2022-09-21T05:02:27.931Z,1.85
2022-09-21T05:04:55.551Z,2.10
2022-09-21T05:07:23.055Z,2.10
2022-09-21T05:10:04.464Z,2.60
2022-09-21T05:12:44.244Z,2.80
2022-09-21T05:15:13.318Z,2.30
2022-09-21T05:17:41.736Z,2.65
2022-09-21T05:20:10.723Z,2.88
2022-09-21T05:22:38.293Z,3.28
2022-09-21T05:25:06.669Z,2.75
2022-09-21T05:27:34.291Z,2.75
2022-09-21T05:30:10.617Z,3.17
2022-09-21T05:33:02.225Z,2.95
2022-09-21T05:41:42.788Z,2.72
2022-09-21T05:44:20.264Z,3.20
2022-09-21T05:46:59.435Z,2.70
2022-09-21T05:49:52.254Z,2.60
2022-09-21T05:52:58.726Z,2.72
2022-09-21T05:56:19.693Z,2.83
2022-09-21T05:58:53.846Z,2.40
2022-09-21T06:02:00.500Z,3.30
2022-09-21T06:04:31.594Z,2.30
2022-09-21T06:07:05.606Z,2.10
2022-09-21T06:09:43.269Z,2.30
2022-09-21T06:12:11.691Z,2.50
2022-09-21T06:14:39.280Z,1.75
2022-09-21T06:17:07.896Z,2.40
2022-09-21T06:19:39.690Z,2.60
2022-09-21T06:22:07.175Z,2.20
2022-09-21T06:24:35.054Z,2.08
2022-09-21T06:27:03.695Z,2.15
2022-09-21T06:29:33.927Z,2.17
2022-09-21T06:32:03.976Z,1.75
2022-09-21T06:34:31.696Z,2.22
2022-09-21T06:36:59.423Z,1.98
2022-09-21T06:39:28.206Z,2.10
2022-09-21T06:41:59.906Z,1.92
2022-09-21T06:44:30.239Z,2.20
2022-09-21T06:47:30.574Z,2.03
2022-09-21T06:50:00.259Z,2.00
2022-09-21T06:52:33.893Z,1.90
2022-09-21T06:55:07.889Z,2.10
2022-09-21T06:57:43.326Z,3.25
2022-09-21T07:00:15.593Z,1.92
2022-09-21T07:02:47.467Z,1.85
2022-09-21T07:05:17.477Z,1.90
2022-09-21T07:07:53.752Z,1.70
2022-09-21T07:10:21.833Z,2.10
2022-09-21T07:12:52.125Z,1.98
2022-09-21T07:15:21.977Z,1.80
2022-09-21T07:17:52.668Z,1.83
2022-09-21T07:20:29.241Z,1.90
2022-09-21T07:23:01.339Z,1.98
2022-09-21T07:25:29.793Z,2.05
2022-09-21T07:28:01.312Z,1.98
2022-09-21T07:30:30.440Z,2.15
2022-09-21T07:33:00.439Z,1.80
2022-09-21T07:35:32.351Z,1.75
2022-09-21T07:38:05.011Z,2.20
2022-09-21T07:40:34.669Z,2.08
2022-09-21T07:43:04.649Z,2.33
2022-09-21T07:45:42.934Z,2.17
2022-09-21T07:51:20.920Z,2.10
2022-09-21T07:53:54.059Z,1.80
2022-09-21T07:56:21.956Z,1.88
2022-09-21T07:59:08.040Z,1.88
2022-09-21T08:01:45.354Z,1.98
2022-09-21T08:04:14.779Z,1.75
2022-09-21T08:06:46.072Z,1.70
2022-09-21T08:09:13.749Z,1.77
2022-09-21T08:11:46.605Z,1.80
2022-09-21T08:19:46.539Z,1.25
2022-09-21T08:41:50.088Z,1.60
2022-09-21T08:44:25.037Z,1.90
2022-09-21T08:47:04.755Z,1.58
2022-09-21T08:49:35.697Z,1.70
2022-09-21T08:55:06.104Z,1.63
2022-09-21T08:57:34.913Z,1.80
2022-09-21T09:00:29.475Z,1.50
2022-09-21T09:03:34.288Z,1.80
2022-09-21T09:06:17.005Z,1.90
2022-09-21T09:09:27.728Z,1.60
2022-09-21T09:12:01.040Z,1.70
2022-09-21T09:14:41.160Z,1.70
2022-09-21T09:17:23.739Z,1.92
2022-09-21T09:20:10.742Z,1.90
2022-09-21T09:22:46.972Z,1.35
2022-09-21T09:25:21.422Z,1.50
2022-09-21T09:27:58.435Z,1.80
2022-09-21T09:30:30.819Z,1.60
2022-09-21T09:33:09.138Z,1.48
2022-09-21T09:35:59.533Z,1.50
2022-09-21T09:41:44.119Z,1.60
2022-09-21T09:44:33.053Z,1.70
2022-09-21T09:58:30.796Z,1.77
2022-09-21T10:06:56.445Z,2.05
2022-09-21T10:09:56.604Z,1.98
2022-09-21T10:12:28.460Z,1.65
2022-09-21T10:15:03.485Z,1.45
2022-09-21T10:23:07.597Z,1.70
2022-09-21T10:25:40.188Z,1.90
2022-09-21T10:28:12.538Z,1.50
2022-09-21T10:30:41.465Z,1.73
2022-09-21T10:33:22.725Z,1.45
2022-09-21T10:35:54.771Z,1.30
2022-09-21T10:38:42.555Z,1.60
2022-09-21T10:41:15.541Z,1.55
2022-09-21T10:43:45.832Z,1.40
2022-09-21T10:49:58.323Z,1.40
2022-09-21T10:58:25.082Z,1.40
2022-09-21T11:00:56.160Z,1.60
2022-09-21T11:06:35.722Z,1.60
2022-09-21T11:09:10.071Z,1.80
2022-09-21T11:12:02.107Z,1.40
2022-09-21T11:14:43.089Z,1.60
2022-09-21T11:17:38.724Z,1.75
2022-09-21T11:20:18.629Z,1.50
2022-09-21T11:22:57.755Z,1.80
2022-09-21T11:25:25.525Z,1.50
2022-09-21T11:28:13.549Z,1.50
2022-09-21T11:31:08.766Z,1.30
2022-09-21T11:34:04.999Z,1.40
2022-09-21T11:36:50.539Z,1.48
2022-09-21T11:39:46.596Z,1.50
2022-09-21T11:42:36.392Z,1.50
2022-09-21T11:45:22.606Z,1.42
2022-09-21T11:48:08.190Z,1.30
2022-09-21T11:53:41.626Z,1.48
2022-09-21T11:56:18.319Z,1.40
2022-09-21T11:58:58.194Z,1.35
2022-09-21T12:01:34.892Z,1.42
2022-09-21T12:04:52.338Z,1.30
2022-09-21T12:10:39.931Z,1.23
2022-09-21T12:13:27.520Z,1.60
2022-09-21T12:16:21.494Z,1.23
2022-09-21T12:19:01.872Z,1.45
2022-09-21T12:21:37.952Z,1.20
2022-09-21T12:24:16.019Z,1.10
2022-09-21T12:26:49.371Z,1.10
2022-09-21T12:29:28.683Z,1.75
2022-09-21T12:32:24.208Z,1.25
2022-09-21T12:35:04.159Z,4.22
2022-09-21T12:37:46.274Z,1.35
2022-09-21T12:40:25.447Z,1.25
2022-09-21T12:43:05.660Z,1.20
2022-09-21T12:45:39.777Z,1.20
2022-09-21T12:48:17.421Z,1.20
2022-09-21T12:50:52.080Z,0.95
2022-09-21T12:53:23.406Z,1.10
2022-09-21T12:56:10.252Z,1.30
2022-09-21T12:59:05.678Z,1.10
2022-09-21T13:01:57.103Z,1.20
2022-09-21T13:04:38.548Z,1.25
2022-09-21T13:07:40.380Z,1.15
2022-09-21T13:10:17.155Z,1.17
2022-09-21T13:12:47.989Z,1.10
2022-09-21T13:15:19.209Z,0.82
2022-09-21T13:17:46.837Z,1.10
2022-09-21T13:20:20.851Z,1.10
2022-09-21T13:22:49.314Z,1.02
2022-09-21T13:25:28.467Z,1.15
2022-09-21T13:28:02.461Z,1.10
2022-09-21T13:30:45.971Z,1.10
2022-09-21T13:33:19.198Z,1.08
2022-09-21T13:36:07.807Z,1.20
2022-09-21T13:38:41.471Z,0.82
2022-09-21T13:41:17.887Z,1.20
2022-09-21T13:43:58.616Z,0.90
2022-09-21T13:47:01.877Z,0.90
2022-09-21T13:49:35.502Z,1.10
2022-09-21T13:52:03.678Z,0.90
2022-09-21T13:54:50.611Z,1.08
2022-09-21T13:57:27.372Z,1.30
2022-09-21T14:00:00.602Z,1.05
2022-09-21T14:02:42.296Z,1.27
2022-09-21T14:05:26.144Z,1.10
2022-09-21T14:08:03.276Z,1.10
2022-09-21T14:10:33.968Z,1.30
2022-09-21T14:13:04.124Z,1.10
2022-09-21T14:15:37.470Z,1.08
2022-09-21T14:18:17.174Z,1.10
2022-09-21T14:21:06.843Z,1.00
2022-09-21T14:23:35.659Z,1.05
2022-09-21T14:26:39.512Z,1.08
2022-09-21T14:29:44.632Z,1.00
2022-09-21T14:32:19.386Z,1.00
2022-09-21T14:34:50.462Z,1.10
2022-09-21T14:37:35.266Z,0.98
2022-09-21T14:40:21.677Z,1.08
2022-09-21T14:42:57.091Z,0.93
2022-09-21T14:46:20.190Z,0.70
2022-09-21T14:49:18.932Z,1.30
2022-09-21T14:52:26.164Z,1.05
2022-09-21T14:55:17.091Z,1.10
2022-09-21T14:58:06.438Z,1.20
2022-09-21T15:00:43.391Z,0.93
2022-09-21T15:03:30.915Z,1.10
2022-09-21T15:06:24.018Z,1.20
2022-09-21T15:09:44.747Z,1.15
2022-09-21T15:12:28.783Z,1.42
2022-09-21T15:15:22.098Z,1.27
2022-09-21T15:17:59.480Z,1.08
2022-09-21T15:20:30.268Z,1.23
2022-09-21T15:22:59.395Z,1.13
2022-09-21T15:25:31.670Z,1.10
2022-09-21T15:28:00.385Z,1.40
2022-09-21T15:30:29.901Z,1.40
2022-09-21T15:33:02.366Z,1.10
2022-09-21T15:35:33.864Z,1.10
2022-09-21T15:38:01.816Z,1.10
2022-09-21T15:40:36.706Z,1.00
2022-09-21T15:43:20.078Z,1.05
2022-09-21T15:45:59.548Z,1.20
2022-09-21T15:48:34.432Z,1.38
2022-09-21T15:51:28.279Z,1.17
2022-09-21T15:54:32.484Z,1.20
2022-09-21T15:57:07.919Z,1.67
2022-09-21T15:59:36.043Z,1.55
2022-09-21T16:02:15.719Z,1.48
2022-09-21T16:04:49.946Z,1.23
2022-09-21T16:07:35.254Z,1.10
2022-09-21T16:10:23.795Z,1.33
2022-09-21T16:12:51.256Z,1.10
2022-09-21T16:15:23.295Z,1.38
2022-09-21T16:18:02.239Z,1.20
2022-09-21T16:20:48.739Z,1.27
2022-09-21T16:23:42.183Z,1.25
2022-09-21T16:26:43.188Z,1.40
2022-09-21T16:29:24.238Z,1.35
2022-09-21T16:31:53.932Z,1.45
2022-09-21T16:34:40.348Z,1.50
2022-09-21T16:37:26.159Z,1.42
2022-09-21T16:40:00.907Z,1.50
2022-09-21T16:42:33.098Z,1.70
2022-09-21T16:45:01.510Z,1.70
2022-09-21T16:47:29.629Z,1.70
2022-09-21T16:50:01.653Z,2.10
2022-09-21T16:52:30.636Z,2.00
2022-09-21T16:54:58.888Z,2.03
2022-09-21T16:57:27.214Z,2.67
2022-09-21T16:59:55.180Z,2.30
2022-09-21T17:02:23.831Z,2.20
2022-09-21T17:04:51.448Z,2.08
2022-09-21T17:07:20.193Z,2.10
2022-09-21T17:09:48.431Z,2.08
2022-09-21T17:12:18.351Z,2.08
2022-09-21T17:14:47.327Z,1.90
2022-09-21T17:17:22.578Z,1.70
2022-09-21T17:19:52.134Z,2.00
2022-09-21T17:22:20.123Z,2.05
2022-09-21T17:24:51.742Z,2.00
2022-09-21T17:27:23.130Z,2.20
2022-09-21T17:29:51.180Z,2.03
2022-09-21T17:32:21.296Z,2.30
2022-09-21T17:35:12.848Z,2.28
2022-09-21T17:37:40.365Z,2.42
2022-09-21T17:40:11.168Z,2.65
2022-09-21T17:42:41.725Z,3.20
2022-09-21T17:45:18.328Z,3.50
2022-09-21T17:47:46.361Z,2.28
2022-09-21T17:50:17.652Z,2.40
2022-09-21T17:53:04.279Z,2.25
2022-09-21T17:55:32.282Z,2.05
2022-09-21T17:58:14.548Z,2.03
2022-09-21T18:00:54.741Z,1.90
2022-09-21T18:03:25.607Z,2.35
2022-09-21T18:05:59.822Z,2.40
2022-09-21T18:08:34.159Z,2.40
2022-09-21T18:11:26.212Z,3.55
2022-09-21T18:14:24.665Z,2.50
2022-09-21T18:17:07.661Z,2.50
2022-09-21T18:19:38.795Z,2.30
2022-09-21T18:22:33.959Z,2.58
2022-09-21T18:25:03.463Z,2.47
2022-09-21T18:27:31.366Z,2.50
2022-09-21T18:29:59.112Z,2.60
2022-09-21T18:32:49.741Z,2.42
2022-09-21T18:35:39.000Z,2.40
2022-09-21T18:38:13.505Z,2.20
2022-09-21T18:41:13.722Z,2.40
2022-09-21T18:44:01.121Z,2.40
2022-09-21T18:46:39.871Z,2.30
2022-09-21T18:49:47.933Z,2.55
2022-09-21T18:52:40.093Z,2.63
2022-09-21T18:55:27.425Z,2.60
2022-09-21T18:57:57.358Z,2.08
2022-09-21T19:00:31.667Z,2.42
2022-09-21T19:03:18.588Z,2.53
2022-09-21T19:06:11.543Z,2.60
2022-09-21T19:09:14.517Z,2.60
2022-09-21T19:11:57.624Z,2.78
2022-09-21T19:14:46.841Z,2.47
2022-09-21T19:17:42.434Z,2.33
2022-09-21T19:20:12.538Z,2.38
2022-09-21T19:23:07.177Z,2.35
2022-09-21T19:25:49.970Z,2.40
2022-09-21T19:29:15.242Z,2.25
2022-09-21T19:31:42.972Z,2.50
2022-09-21T19:34:15.858Z,2.03
2022-09-21T19:36:44.712Z,2.28
2022-09-21T19:39:13.372Z,2.30
2022-09-21T19:41:50.516Z,2.30
2022-09-21T19:44:28.009Z,2.20
2022-09-21T19:47:25.739Z,2.05
2022-09-21T19:49:54.788Z,2.20
2022-09-21T19:52:36.527Z,2.03
2022-09-21T19:55:23.459Z,2.13
2022-09-21T19:58:14.297Z,2.10
2022-09-21T20:00:44.260Z,2.30
2022-09-21T20:03:22.451Z,2.40
2022-09-21T20:06:06.809Z,2.20
2022-09-21T20:09:06.642Z,1.90
2022-09-21T20:11:46.372Z,2.00
2022-09-21T20:14:33.237Z,2.13
2022-09-21T20:17:05.336Z,1.83
2022-09-21T20:19:33.110Z,1.92
2022-09-21T20:22:09.232Z,1.90
2022-09-21T20:24:53.907Z,2.10
2022-09-21T20:27:30.025Z,1.98
2022-09-21T20:29:57.922Z,2.00
2022-09-21T20:32:25.818Z,2.10
2022-09-21T20:34:53.306Z,1.90
2022-09-21T20:37:22.229Z,2.45
2022-09-21T20:39:49.876Z,2.00
2022-09-21T20:42:23.628Z,2.08
2022-09-21T20:44:51.808Z,2.20
2022-09-21T20:47:20.627Z,2.08
2022-09-21T20:49:49.220Z,3.25
2022-09-21T20:52:17.845Z,2.55
2022-09-21T20:54:49.333Z,2.45
2022-09-21T20:57:18.373Z,2.97
2022-09-21T20:59:46.108Z,2.95
2022-09-21T21:02:15.444Z,2.50
2022-09-21T21:04:45.125Z,2.63
2022-09-21T21:07:12.575Z,2.70
2022-09-21T21:09:39.909Z,2.50
2022-09-21T21:12:07.535Z,2.10
2022-09-21T21:14:35.136Z,2.30
2022-09-21T21:17:03.011Z,1.95
2022-09-21T21:19:31.506Z,2.28
2022-09-21T21:21:59.049Z,2.25
2022-09-21T21:24:41.934Z,2.30
2022-09-21T21:27:20.267Z,2.10
2022-09-21T21:29:51.247Z,2.28
2022-09-21T21:32:20.765Z,2.13
2022-09-21T21:34:50.191Z,2.10
2022-09-21T21:37:19.913Z,2.30
2022-09-21T21:39:47.944Z,1.80
2022-09-21T21:42:17.236Z,1.90
2022-09-21T21:44:46.820Z,2.08
2022-09-21T21:47:38.337Z,2.58
2022-09-21T21:50:02.676Z,2.60
2022-09-21T21:52:30.524Z,2.40
2022-09-21T21:54:57.866Z,2.10
2022-09-21T21:57:25.360Z,1.95
2022-09-21T21:59:52.887Z,2.53
2022-09-21T22:02:20.577Z,2.38
2022-09-21T22:04:48.229Z,2.65
2022-09-21T22:07:15.844Z,2.65
2022-09-21T22:09:43.454Z,2.35
2022-09-21T22:12:11.357Z,2.55
2022-09-21T22:14:39.035Z,2.00
2022-09-21T22:17:06.604Z,2.47
2022-09-21T22:19:34.369Z,2.00
2022-09-21T22:22:01.764Z,2.22
2022-09-21T22:24:29.809Z,2.33
2022-09-21T22:26:57.512Z,2.03
2022-09-21T22:29:25.361Z,2.08
2022-09-21T22:31:54.321Z,2.20
2022-09-21T22:34:21.887Z,2.38
2022-09-21T22:36:50.527Z,2.13
2022-09-21T22:39:17.992Z,2.28
2022-09-21T22:41:45.546Z,2.10
2022-09-21T22:44:13.095Z,2.10
2022-09-21T22:46:40.861Z,2.13
2022-09-21T22:49:09.225Z,1.90
2022-09-21T22:51:38.123Z,1.88
2022-09-21T22:54:06.169Z,2.22
2022-09-21T22:56:34.000Z,2.00
2022-09-21T22:59:03.991Z,1.95
2022-09-21T23:01:36.821Z,1.92
2022-09-21T23:04:10.422Z,2.17
2022-09-21T23:06:44.064Z,1.85
2022-09-21T23:09:18.560Z,2.10
2022-09-21T23:11:48.545Z,2.00
2022-09-21T23:14:17.306Z,1.95
2022-09-21T23:16:45.681Z,2.10
2022-09-21T23:19:16.581Z,2.00
2022-09-21T23:21:46.930Z,2.00
2022-09-21T23:24:14.715Z,2.00
2022-09-21T23:26:42.781Z,1.70
2022-09-21T23:29:13.124Z,1.98
2022-09-21T23:31:44.760Z,2.45
2022-09-21T23:34:13.679Z,1.60
2022-09-21T23:36:42.075Z,1.90
2022-09-21T23:39:12.170Z,1.95
2022-09-21T23:41:39.645Z,1.70
2022-09-21T23:44:07.515Z,2.00
2022-09-21T23:46:37.196Z,1.92
2022-09-21T23:49:05.371Z,1.85
2022-09-21T23:51:33.252Z,1.70
2022-09-21T23:54:01.503Z,1.85
2022-09-21T23:56:29.623Z,1.50
2022-09-21T23:58:57.238Z,1.90
